Accueil
METAR-TAF:

METAR-TAF

Aéroports :

Aéroport Douglas-Charles

Marigot, Dominique

latitude: 15-32N, longitude: 061-18W, altitude: 13 m

Observation

Le bulletin a été fait il y a 44 minutes, à 19:00 UTC
Vent 8 kt de est
Température 27°C
Humidité 70%
Pression 1016 hPa
Visibilité 10 km ou plus
Nuages fragmentés à une hauteur de 2000 ft

METAR: TDPD 291900Z 10008KT 9999 BKN020 27/21 Q1016

Heure: 15:44 (19:44 UTC)

Prévision

Le bulletin a été fait il y a 2 heures et 44 minutes, à 17:00 UTC
Prévision valable du 29 à 18 UTC au 30 à 18 UTC
Vent 10 kt de est
Visibilité 10 km ou plus
Nuages épars à une hauteur de 1800 ft

TAF: TDPD 291700Z 2918/3018 10010KT 9999 SCT018

Observations et prévisions météorologiques de plus de 4000 aéroports (messages METAR et TAF).

Les stations disponibles sont représentées par des disques jaunes et rouges sur la carte.

Passer la souris dessus pour voir le nom de la station.

Cliquer dessus pour voir les observations et prévisions météorologiques.

Pour changer de carte: cliquez sur les boutons verts avec une croix noire pour zoomer, sur le bouton vert avec un tiret pour effectuer un zoom arrière, ou sur les flèches vertes pour les cartes adjacentes.


METAR-TAF: